Time;durP1;ratioP1;P1;durP2;ratioP2;P2;SDS_P1;SDS_P2;PMS_P1;PMS_P2;Temp;Humidity;BMP_temperature;BMP_pressure;BME280_temperature;BME280_humidity;BME280_pressure;Samples;Min_cycle;Max_cycle;Signal;HPM_P1;HPM_P2
2022/12/12 00:02:40;;;;;;;24.40;17.00;;;4.90;61.70;;;;;;5015270;28;20117;-76
2022/12/12 00:05:24;;;;;;;24.00;16.52;;;4.80;61.60;;;;;;5021863;28;20040;-76
2022/12/12 00:08:09;;;;;;;25.92;15.90;;;4.90;61.70;;;;;;5022998;28;20301;-76
2022/12/12 00:10:54;;;;;;;25.17;16.10;;;4.80;61.60;;;;;;5022494;28;20096;-76
2022/12/12 00:13:38;;;;;;;24.23;16.48;;;4.80;61.60;;;;;;5019987;28;20048;-76
2022/12/12 00:16:24;;;;;;;23.42;16.50;;;4.90;61.80;;;;;;5022454;28;20111;-76
2022/12/12 00:19:08;;;;;;;21.45;15.70;;;4.80;61.60;;;;;;5012178;28;20033;-77
2022/12/12 00:21:53;;;;;;;21.63;15.10;;;4.80;61.50;;;;;;5020507;28;20040;-76
2022/12/12 00:24:38;;;;;;;26.63;15.65;;;4.80;61.50;;;;;;5016402;28;20052;-75
2022/12/12 00:27:23;;;;;;;22.35;14.80;;;4.80;61.50;;;;;;5020048;28;20083;-75
2022/12/12 00:30:07;;;;;;;19.92;14.15;;;4.80;61.50;;;;;;5000567;28;20142;-75
2022/12/12 00:32:52;;;;;;;25.85;15.40;;;4.80;61.50;;;;;;5023904;28;20299;-76
2022/12/12 00:35:37;;;;;;;21.77;15.65;;;4.80;61.50;;;;;;5007863;28;20087;-76
2022/12/12 00:38:22;;;;;;;24.08;15.63;;;4.80;61.50;;;;;;5007330;28;20117;-76
2022/12/12 00:41:07;;;;;;;20.75;15.50;;;4.80;61.50;;;;;;5022328;28;20103;-76
2022/12/12 00:43:53;;;;;;;22.85;15.20;;;4.80;61.50;;;;;;5021584;28;20053;-76
2022/12/12 00:46:38;;;;;;;22.42;15.35;;;4.70;61.30;;;;;;5012654;28;20577;-76
2022/12/12 00:49:22;;;;;;;23.05;14.38;;;4.70;61.30;;;;;;5002841;28;20436;-76
2022/12/12 00:52:07;;;;;;;23.35;16.42;;;4.80;61.50;;;;;;5013969;28;20059;-76
2022/12/12 00:54:52;;;;;;;22.55;14.38;;;4.80;61.50;;;;;;5022339;28;20047;-77
2022/12/12 00:57:37;;;;;;;22.55;15.70;;;4.80;61.50;;;;;;5010441;28;20095;-76
2022/12/12 01:00:22;;;;;;;22.80;15.57;;;4.80;61.50;;;;;;5021268;28;20060;-76
2022/12/12 01:03:07;;;;;;;22.00;15.77;;;4.70;61.30;;;;;;5018105;28;20456;-76
2022/12/12 01:05:51;;;;;;;22.77;15.52;;;4.70;61.30;;;;;;4997251;28;20044;-75
2022/12/12 01:08:37;;;;;;;22.83;15.52;;;4.70;61.30;;;;;;5009412;28;20257;-75
2022/12/12 01:11:22;;;;;;;20.73;15.35;;;4.70;61.30;;;;;;5015376;28;20146;-75
2022/12/12 01:14:06;;;;;;;23.50;15.52;;;4.70;61.30;;;;;;5021049;28;20048;-75
2022/12/12 01:16:51;;;;;;;24.20;14.27;;;4.70;61.20;;;;;;5018780;28;20043;-76
2022/12/12 01:19:36;;;;;;;20.90;14.40;;;4.70;61.20;;;;;;5013684;28;20048;-75
2022/12/12 01:22:22;;;;;;;22.70;15.75;;;4.70;61.20;;;;;;5022974;28;20087;-76
2022/12/12 01:25:06;;;;;;;22.88;14.38;;;4.70;61.20;;;;;;5011823;28;20107;-75
2022/12/12 01:27:51;;;;;;;21.67;14.52;;;4.70;61.20;;;;;;5018285;28;20448;-75
2022/12/12 01:30:37;;;;;;;23.27;15.35;;;4.70;61.20;;;;;;5016866;28;20060;-76
2022/12/12 01:33:22;;;;;;;21.17;14.05;;;4.70;61.30;;;;;;5016893;28;20379;-76
2022/12/12 01:36:06;;;;;;;21.88;14.60;;;4.70;61.20;;;;;;5017801;28;20048;-76
2022/12/12 01:38:55;;;;;;;18.92;13.32;;;4.70;61.20;;;;;;5025425;28;20044;-76
2022/12/12 01:41:41;;;;;;;18.58;13.85;;;4.60;61.00;;;;;;5017016;28;20100;-76
2022/12/12 01:44:40;;;;;;;19.73;13.60;;;4.70;61.20;;;;;;5023925;28;20241;-76
2022/12/12 01:47:25;;;;;;;20.20;13.90;;;4.60;61.00;;;;;;5007278;28;20049;-77
2022/12/12 01:50:10;;;;;;;19.55;13.48;;;4.60;61.00;;;;;;5023941;28;20092;-75
2022/12/12 01:52:55;;;;;;;18.45;13.85;;;4.60;61.00;;;;;;5025806;28;20037;-75
2022/12/12 01:55:39;;;;;;;20.45;13.10;;;4.60;61.10;;;;;;5025098;28;20060;-75
2022/12/12 01:58:25;;;;;;;17.35;11.50;;;4.60;61.10;;;;;;5023498;28;20032;-75
2022/12/12 02:01:10;;;;;;;19.95;13.15;;;4.60;61.60;;;;;;5024596;28;20091;-76
2022/12/12 02:03:55;;;;;;;19.90;13.20;;;4.60;61.10;;;;;;5011846;28;20174;-75
2022/12/12 02:06:41;;;;;;;19.33;13.40;;;4.60;61.00;;;;;;5025056;28;20464;-75
2022/12/12 02:09:26;;;;;;;17.05;12.32;;;4.60;61.00;;;;;;5023598;28;20579;-75
2022/12/12 02:12:13;;;;;;;18.13;12.55;;;4.60;61.10;;;;;;5028005;28;20033;-76
2022/12/12 02:15:01;;;;;;;18.40;12.23;;;4.60;61.00;;;;;;5028477;28;20056;-75
2022/12/12 02:18:11;;;;;;;17.20;12.27;;;4.50;61.40;;;;;;5017094;28;20044;-75
2022/12/12 02:21:18;;;;;;;17.23;11.82;;;4.60;61.00;;;;;;5029711;28;20064;-76
2022/12/12 02:24:57;;;;;;;21.05;14.10;;;4.60;61.00;;;;;;5025159;28;20183;-76
2022/12/12 02:28:00;;;;;;;18.83;11.60;;;4.60;61.00;;;;;;4996451;28;20040;-76
2022/12/12 02:31:24;;;;;;;20.48;12.35;;;4.50;60.70;;;;;;5036635;28;20098;-76
2022/12/12 02:34:09;;;;;;;17.73;12.25;;;4.50;60.70;;;;;;5021855;28;20052;-77
2022/12/12 02:37:03;;;;;;;19.75;12.65;;;4.50;60.70;;;;;;5041743;28;20044;-76
2022/12/12 02:39:57;;;;;;;19.95;13.35;;;4.60;60.90;;;;;;5044828;28;20558;-76
2022/12/12 02:43:10;;;;;;;17.52;11.95;;;4.50;60.80;;;;;;5043670;28;20048;-76
2022/12/12 02:46:06;;;;;;;19.60;13.15;;;4.50;60.70;;;;;;5027273;28;20041;-76
2022/12/12 02:48:58;;;;;;;19.90;12.90;;;4.60;61.00;;;;;;5025711;28;20068;-77
2022/12/12 02:51:44;;;;;;;21.77;13.70;;;4.50;60.80;;;;;;5021705;28;20090;-76
2022/12/12 02:54:29;;;;;;;19.00;12.45;;;4.50;60.80;;;;;;5016312;28;20048;-77
2022/12/12 02:57:17;;;;;;;21.02;12.57;;;4.50;60.80;;;;;;5028418;28;20511;-76
2022/12/12 03:00:15;;;;;;;18.25;12.43;;;4.50;60.80;;;;;;5012832;28;20596;-77
2022/12/12 03:09:35;;;;;;;20.77;13.13;;;4.50;60.80;;;;;;5018070;28;20040;-75
2022/12/12 03:13:16;;;;;;;20.50;13.20;;;4.40;60.60;;;;;;5027181;28;20040;-76
2022/12/12 03:16:08;;;;;;;19.40;12.73;;;4.40;60.60;;;;;;4970641;28;20609;-76
2022/12/12 03:19:15;;;;;;;19.27;12.65;;;4.40;60.60;;;;;;5024406;28;20044;-77
2022/12/12 03:22:23;;;;;;;24.08;13.45;;;4.50;60.70;;;;;;5015627;28;20091;-77
2022/12/12 03:25:14;;;;;;;20.85;12.57;;;4.40;60.50;;;;;;5024735;28;20484;-76
2022/12/12 03:28:12;;;;;;;22.67;13.65;;;4.40;60.50;;;;;;5027433;28;20156;-77
2022/12/12 03:31:02;;;;;;;19.65;12.73;;;4.40;60.50;;;;;;5026498;28;20098;-77
2022/12/12 03:34:22;;;;;;;22.65;13.77;;;4.40;60.50;;;;;;5027574;28;20321;-77
2022/12/12 03:37:12;;;;;;;20.60;13.88;;;4.40;60.50;;;;;;5026586;28;20060;-77
2022/12/12 03:40:23;;;;;;;21.25;12.85;;;4.40;60.50;;;;;;5013595;28;20052;-77
2022/12/12 03:43:10;;;;;;;20.95;12.77;;;4.40;60.60;;;;;;4995231;28;20567;-76
2022/12/12 03:46:16;;;;;;;22.10;12.73;;;4.30;60.40;;;;;;5026609;28;20045;-76
2022/12/12 03:49:14;;;;;;;21.05;13.35;;;4.30;60.40;;;;;;5026498;28;20503;-76
2022/12/12 03:52:10;;;;;;;18.70;12.18;;;4.30;60.40;;;;;;5014497;28;20396;-77
2022/12/12 03:55:07;;;;;;;20.70;13.15;;;4.20;60.30;;;;;;5019112;28;20049;-75
2022/12/12 03:57:59;;;;;;;19.13;13.27;;;4.20;60.40;;;;;;5013958;28;20052;-76
2022/12/12 04:00:46;;;;;;;22.17;12.98;;;4.20;60.30;;;;;;5024720;28;20040;-75
2022/12/12 04:03:58;;;;;;;19.17;12.25;;;4.20;60.30;;;;;;5025874;28;20608;-78
2022/12/12 04:06:51;;;;;;;20.52;13.43;;;4.20;60.30;;;;;;5026585;28;20041;-77
2022/12/12 04:13:05;;;;;;;22.73;14.13;;;4.20;60.30;;;;;;5017058;28;20079;-76
2022/12/12 04:16:01;;;;;;;21.35;13.52;;;4.20;60.30;;;;;;5016130;28;20049;-76
2022/12/12 04:19:01;;;;;;;23.42;14.38;;;4.10;60.10;;;;;;5020854;28;20040;-76
2022/12/12 04:25:02;;;;;;;23.55;13.65;;;4.10;60.20;;;;;;5023831;28;20133;-76
2022/12/12 04:27:51;;;;;;;20.67;13.27;;;4.10;60.10;;;;;;5026617;28;20550;-76
2022/12/12 04:30:36;;;;;;;21.85;13.63;;;4.10;60.10;;;;;;5024434;28;20071;-76
2022/12/12 04:33:23;;;;;;;21.95;14.30;;;4.10;60.20;;;;;;5015657;28;20090;-77
2022/12/12 04:36:10;;;;;;;23.35;14.02;;;4.10;60.20;;;;;;5026245;28;20056;-76
2022/12/12 04:38:55;;;;;;;22.75;13.80;;;4.10;60.20;;;;;;5019933;28;20079;-76
2022/12/12 04:41:43;;;;;;;22.13;14.13;;;4.10;60.40;;;;;;5025159;28;20100;-76
2022/12/12 04:44:29;;;;;;;23.13;14.80;;;4.10;60.20;;;;;;5011789;28;20112;-77
2022/12/12 04:47:15;;;;;;;23.92;15.25;;;4.10;60.20;;;;;;5010081;28;20052;-77
2022/12/12 04:50:01;;;;;;;22.52;12.95;;;4.10;60.20;;;;;;5020045;28;20096;-77
2022/12/12 04:52:47;;;;;;;20.25;13.40;;;4.00;60.00;;;;;;5014824;28;20040;-78
2022/12/12 04:55:35;;;;;;;22.10;14.07;;;4.00;60.50;;;;;;5025931;28;20045;-77
2022/12/12 04:58:20;;;;;;;19.98;13.38;;;4.00;60.00;;;;;;5020116;28;20163;-77
2022/12/12 05:01:31;;;;;;;23.67;13.57;;;4.00;60.00;;;;;;5009486;28;20060;-76
2022/12/12 05:04:47;;;;;;;21.65;13.38;;;4.00;60.00;;;;;;5019391;28;20049;-77
2022/12/12 05:07:39;;;;;;;22.83;13.75;;;4.00;60.00;;;;;;5026220;28;20045;-76
2022/12/12 05:10:24;;;;;;;24.98;14.38;;;4.00;60.00;;;;;;5025916;28;20056;-77
2022/12/12 05:13:20;;;;;;;21.98;14.75;;;4.00;60.50;;;;;;5029597;28;20202;-76
2022/12/12 05:16:31;;;;;;;21.80;14.63;;;4.10;60.10;;;;;;5025006;28;20045;-76
2022/12/12 05:19:15;;;;;;;21.27;14.02;;;4.00;59.90;;;;;;5022469;28;20494;-76
2022/12/12 05:22:00;;;;;;;22.70;14.25;;;4.00;59.90;;;;;;5016605;28;20078;-76
2022/12/12 05:24:44;;;;;;;21.33;14.15;;;4.00;59.90;;;;;;5028462;28;20498;-76
2022/12/12 05:27:29;;;;;;;20.48;13.70;;;4.10;60.00;;;;;;5035142;28;20036;-76
2022/12/12 05:30:13;;;;;;;21.83;14.30;;;4.00;59.90;;;;;;5017065;28;20048;-76
2022/12/12 05:32:58;;;;;;;21.17;13.93;;;4.10;60.00;;;;;;5027877;28;20504;-75
2022/12/12 05:35:43;;;;;;;23.67;14.98;;;4.00;59.80;;;;;;5028766;28;20099;-75
2022/12/12 05:38:28;;;;;;;21.60;14.38;;;4.10;60.00;;;;;;5029456;28;20076;-75
2022/12/12 05:41:14;;;;;;;21.25;14.38;;;4.10;59.90;;;;;;5020903;28;20056;-75
2022/12/12 05:43:58;;;;;;;20.27;14.55;;;4.10;59.90;;;;;;5028277;28;20092;-75
2022/12/12 05:46:43;;;;;;;19.95;13.50;;;4.10;59.90;;;;;;5021931;28;20057;-76
2022/12/12 05:49:27;;;;;;;24.23;15.75;;;4.10;59.90;;;;;;5023964;28;20043;-76
2022/12/12 05:52:12;;;;;;;20.92;14.00;;;4.10;59.90;;;;;;5022149;28;20048;-76
2022/12/12 05:54:57;;;;;;;22.58;14.57;;;4.10;59.90;;;;;;5025262;28;20048;-76
2022/12/12 05:57:41;;;;;;;22.08;14.77;;;4.10;59.90;;;;;;5023122;28;20095;-76
2022/12/12 06:00:26;;;;;;;23.88;14.98;;;4.10;59.90;;;;;;5020428;28;20166;-76
2022/12/12 06:03:11;;;;;;;21.13;14.32;;;4.10;59.90;;;;;;5023672;28;20087;-77
2022/12/12 06:05:55;;;;;;;23.05;14.60;;;4.10;59.90;;;;;;5015464;28;20112;-77
2022/12/12 06:08:40;;;;;;;21.65;14.27;;;4.00;59.60;;;;;;5023463;28;20587;-77
2022/12/12 06:11:24;;;;;;;23.67;14.95;;;4.10;59.80;;;;;;5022799;28;20107;-76
2022/12/12 06:14:09;;;;;;;21.17;13.82;;;4.10;59.80;;;;;;5024155;28;20476;-77
2022/12/12 06:16:53;;;;;;;23.15;15.85;;;4.10;59.80;;;;;;5011641;28;20121;-77
2022/12/12 06:19:38;;;;;;;24.02;15.38;;;4.10;59.80;;;;;;5022442;28;20311;-76
2022/12/12 06:22:23;;;;;;;21.90;14.75;;;4.10;59.80;;;;;;5019365;28;20048;-76
2022/12/12 06:25:08;;;;;;;22.25;14.82;;;4.10;59.70;;;;;;5014419;28;20044;-77
2022/12/12 06:27:53;;;;;;;24.17;15.70;;;4.10;59.70;;;;;;5019404;28;20098;-77
2022/12/12 06:30:38;;;;;;;21.33;15.00;;;4.10;59.70;;;;;;5023598;28;20084;-77
2022/12/12 06:33:22;;;;;;;24.35;15.38;;;4.10;59.70;;;;;;5024192;28;20045;-76
2022/12/12 06:36:10;;;;;;;25.52;16.05;;;4.10;59.70;;;;;;5021239;28;20121;-77
2022/12/12 06:38:58;;;;;;;26.63;15.38;;;4.10;59.70;;;;;;5023929;28;20377;-75
2022/12/12 06:41:43;;;;;;;23.00;15.27;;;4.10;59.70;;;;;;5023325;28;20079;-74
2022/12/12 06:44:27;;;;;;;22.77;15.52;;;4.10;59.70;;;;;;5008225;28;20590;-75
2022/12/12 06:47:12;;;;;;;24.23;15.95;;;4.10;59.60;;;;;;5019416;28;20670;-75
2022/12/12 06:49:56;;;;;;;25.83;17.05;;;4.10;59.60;;;;;;5018157;28;20148;-76
2022/12/12 06:52:41;;;;;;;23.98;16.35;;;4.10;59.60;;;;;;5011899;28;20060;-78
2022/12/12 06:55:25;;;;;;;26.35;16.35;;;4.10;59.60;;;;;;5005129;28;20043;-76
2022/12/12 06:58:10;;;;;;;23.92;15.85;;;4.10;59.60;;;;;;5023920;28;20047;-76
2022/12/12 07:00:55;;;;;;;26.95;16.17;;;4.10;59.80;;;;;;5023674;28;20472;-79
2022/12/12 07:03:40;;;;;;;25.48;16.85;;;4.20;60.00;;;;;;5021434;28;20056;-80
2022/12/12 07:06:25;;;;;;;30.67;16.42;;;4.20;60.00;;;;;;5022361;28;20404;-76
2022/12/12 07:09:10;;;;;;;28.88;16.60;;;4.20;60.10;;;;;;5017005;28;20048;-83
2022/12/12 07:11:55;;;;;;;33.03;18.67;;;4.20;60.30;;;;;;5023355;28;20045;-75
2022/12/12 07:14:40;;;;;;;27.77;16.95;;;4.40;61.50;;;;;;5017498;28;20561;-74
2022/12/12 07:17:24;;;;;;;23.05;14.18;;;4.50;61.20;;;;;;5017320;28;20040;-77
2022/12/12 07:20:09;;;;;;;25.38;16.45;;;4.60;61.20;;;;;;5004794;28;20056;-75
2022/12/12 07:22:53;;;;;;;29.63;17.42;;;4.70;61.50;;;;;;5018835;28;20068;-76
2022/12/12 07:25:43;;;;;;;28.25;17.92;;;4.80;61.70;;;;;;5019981;28;20551;-77
2022/12/12 07:28:27;;;;;;;25.98;16.20;;;4.80;61.70;;;;;;5015138;28;20041;-76
2022/12/12 07:31:15;;;;;;;27.92;17.15;;;4.80;61.60;;;;;;5020505;28;20040;-77
2022/12/12 07:34:00;;;;;;;26.23;17.25;;;4.80;61.70;;;;;;5021302;28;20032;-74
2022/12/12 07:36:45;;;;;;;26.70;18.15;;;4.70;61.60;;;;;;5017869;28;20121;-75
2022/12/12 07:39:31;;;;;;;29.30;18.42;;;4.70;61.60;;;;;;5021589;28;20082;-76
2022/12/12 07:42:15;;;;;;;25.50;17.40;;;4.60;61.50;;;;;;5023207;28;20107;-76
2022/12/12 07:45:00;;;;;;;28.25;18.08;;;4.60;61.50;;;;;;5010407;28;20539;-76
2022/12/12 07:47:45;;;;;;;28.60;18.95;;;4.60;61.60;;;;;;5019188;28;20618;-78
2022/12/12 07:50:29;;;;;;;27.38;18.05;;;4.50;61.40;;;;;;5023058;28;20044;-78
2022/12/12 07:53:14;;;;;;;26.38;17.73;;;4.50;61.50;;;;;;5009750;28;20101;-77
2022/12/12 07:55:59;;;;;;;30.20;18.65;;;4.50;61.50;;;;;;5014997;28;20095;-78
2022/12/12 07:58:44;;;;;;;26.33;18.83;;;4.50;61.50;;;;;;5022272;28;20510;-78
2022/12/12 08:01:29;;;;;;;26.98;17.95;;;4.40;61.30;;;;;;5018841;28;20092;-77
2022/12/12 08:04:13;;;;;;;27.38;19.15;;;4.40;61.40;;;;;;5023139;28;20408;-77
2022/12/12 08:06:58;;;;;;;31.95;19.40;;;4.40;61.30;;;;;;5019066;28;20220;-77
2022/12/12 08:09:42;;;;;;;28.73;19.83;;;4.40;61.30;;;;;;5021894;28;20207;-78
2022/12/12 08:12:32;;;;;;;31.90;20.02;;;4.40;61.20;;;;;;5023118;28;20053;-79
2022/12/12 08:15:17;;;;;;;30.25;20.23;;;4.30;61.00;;;;;;5019739;28;20044;-78
2022/12/12 08:18:01;;;;;;;32.58;20.80;;;4.40;61.20;;;;;;5014926;28;20301;-79
2022/12/12 08:20:46;;;;;;;35.22;20.83;;;4.40;61.10;;;;;;5021995;28;20456;-79
2022/12/12 08:23:31;;;;;;;32.80;21.05;;;4.30;60.90;;;;;;5007179;28;20065;-79
2022/12/12 08:26:17;;;;;;;30.15;20.15;;;4.30;60.90;;;;;;5019817;28;20048;-79
2022/12/12 08:29:02;;;;;;;35.38;20.23;;;4.30;61.40;;;;;;5018539;28;20324;-78
2022/12/12 08:31:46;;;;;;;29.50;20.48;;;4.30;60.80;;;;;;5012182;28;20103;-78
2022/12/12 08:34:31;;;;;;;30.02;20.67;;;4.30;60.70;;;;;;5024496;28;20175;-77
2022/12/12 08:37:15;;;;;;;27.70;19.80;;;4.40;60.90;;;;;;5027253;28;20124;-78
2022/12/12 08:40:00;;;;;;;29.92;19.02;;;4.40;60.80;;;;;;5024174;28;20633;-77
2022/12/12 08:42:44;;;;;;;29.73;19.80;;;4.30;60.60;;;;;;5010722;28;20036;-77
2022/12/12 08:45:29;;;;;;;29.08;20.20;;;4.30;60.50;;;;;;5025668;28;20044;-77
2022/12/12 08:48:14;;;;;;;29.85;20.35;;;4.40;60.70;;;;;;5021339;28;20100;-78
2022/12/12 08:50:59;;;;;;;29.27;18.88;;;4.40;60.60;;;;;;5022407;28;20111;-78
2022/12/12 08:53:45;;;;;;;26.88;18.63;;;4.30;60.30;;;;;;5026086;28;20207;-77
2022/12/12 08:56:29;;;;;;;31.10;20.13;;;4.30;60.30;;;;;;5013578;28;20278;-78
2022/12/12 08:59:14;;;;;;;31.65;19.13;;;4.30;60.20;;;;;;5023447;28;20040;-78
2022/12/12 09:01:58;;;;;;;27.73;18.95;;;4.30;60.20;;;;;;5027104;28;20488;-78
2022/12/12 09:04:43;;;;;;;28.27;18.13;;;4.30;60.10;;;;;;5025461;28;20079;-75
2022/12/12 09:07:28;;;;;;;28.20;20.10;;;4.30;60.10;;;;;;5026493;28;20084;-76
2022/12/12 09:10:12;;;;;;;29.40;18.67;;;4.30;60.00;;;;;;5010614;28;20056;-78
2022/12/12 09:12:57;;;;;;;28.45;18.77;;;4.30;60.00;;;;;;5025160;28;20060;-76
2022/12/12 09:15:42;;;;;;;27.00;18.00;;;4.30;59.90;;;;;;5022016;28;20628;-76
2022/12/12 09:18:27;;;;;;;29.52;19.35;;;4.30;59.90;;;;;;5014998;28;20048;-76
2022/12/12 09:21:11;;;;;;;29.13;19.02;;;4.30;59.80;;;;;;5018085;28;20037;-75
2022/12/12 09:23:56;;;;;;;34.28;18.58;;;4.30;59.80;;;;;;5017526;28;20551;-75
2022/12/12 09:26:40;;;;;;;32.97;19.98;;;4.40;60.10;;;;;;5000933;28;20511;-75
2022/12/12 09:29:25;;;;;;;29.70;19.33;;;4.40;60.30;;;;;;5021552;28;20101;-75
2022/12/12 09:32:09;;;;;;;26.38;18.58;;;4.50;60.40;;;;;;5011132;28;20104;-75
2022/12/12 09:34:54;;;;;;;29.73;20.08;;;4.50;60.20;;;;;;5012010;28;20063;-75
2022/12/12 09:37:39;;;;;;;31.23;19.83;;;4.60;60.30;;;;;;5007973;28;20036;-78
2022/12/12 09:40:37;;;;;;;29.55;19.67;;;4.60;60.20;;;;;;5007019;28;20412;-76
2022/12/12 09:43:26;;;;;;;27.67;19.35;;;4.70;60.30;;;;;;5000019;28;20095;-77
2022/12/12 09:46:34;;;;;;;25.85;18.10;;;4.70;60.20;;;;;;5010074;28;20361;-76
2022/12/12 09:49:36;;;;;;;27.98;19.27;;;4.80;60.30;;;;;;5015758;28;20515;-76
2022/12/12 09:52:40;;;;;;;28.58;19.10;;;4.80;60.10;;;;;;5022278;28;20095;-77
2022/12/12 09:55:28;;;;;;;29.10;19.35;;;4.80;60.10;;;;;;5024476;28;20063;-76
2022/12/12 09:58:32;;;;;;;27.80;19.65;;;4.80;60.10;;;;;;5023946;28;20164;-76
2022/12/12 10:01:30;;;;;;;27.00;18.42;;;4.80;60.00;;;;;;5015969;28;20095;-76
2022/12/12 10:04:37;;;;;;;30.45;19.45;;;4.80;60.00;;;;;;5013733;28;20635;-76
2022/12/12 10:07:36;;;;;;;26.63;18.52;;;4.90;60.10;;;;;;5013208;28;20040;-75
2022/12/12 10:10:38;;;;;;;28.10;18.63;;;4.90;60.00;;;;;;5023923;28;20118;-75
2022/12/12 10:13:29;;;;;;;28.40;19.63;;;5.00;60.10;;;;;;5020605;28;20076;-74
2022/12/12 10:16:14;;;;;;;27.20;19.30;;;5.00;59.90;;;;;;5025045;28;20538;-76
2022/12/12 10:19:22;;;;;;;27.58;19.33;;;5.10;59.90;;;;;;5003258;28;20041;-76
2022/12/12 10:22:22;;;;;;;25.95;19.17;;;5.10;59.70;;;;;;5015250;28;20117;-78
2022/12/12 10:25:33;;;;;;;28.27;19.67;;;5.20;59.80;;;;;;5015795;28;20048;-77
2022/12/12 10:28:24;;;;;;;27.25;19.48;;;5.30;59.80;;;;;;5020670;28;20503;-77
2022/12/12 10:31:33;;;;;;;27.23;18.15;;;5.30;59.70;;;;;;5021947;28;20044;-76
2022/12/12 10:34:33;;;;;;;26.67;18.38;;;5.30;59.60;;;;;;5009661;28;20080;-76
2022/12/12 10:37:30;;;;;;;26.20;18.55;;;5.40;59.60;;;;;;5014570;28;20532;-76
2022/12/12 10:40:39;;;;;;;27.30;19.42;;;5.40;59.50;;;;;;5019906;28;20632;-76
2022/12/12 10:43:41;;;;;;;26.77;18.20;;;5.50;59.60;;;;;;5013842;28;20578;-78
2022/12/12 10:46:38;;;;;;;28.50;18.73;;;5.60;59.60;;;;;;5023034;28;20520;-78
2022/12/12 10:49:23;;;;;;;27.50;19.52;;;5.60;59.50;;;;;;5004566;28;20064;-78
2022/12/12 10:52:21;;;;;;;28.27;20.30;;;5.70;59.50;;;;;;5020170;28;20286;-76
2022/12/12 10:55:19;;;;;;;28.13;19.08;;;5.70;59.30;;;;;;5015127;28;20053;-76
2022/12/12 10:58:05;;;;;;;29.08;19.52;;;5.80;59.40;;;;;;5015308;28;20056;-78
2022/12/12 11:00:49;;;;;;;28.90;19.33;;;5.80;59.30;;;;;;5011907;28;20116;-78
2022/12/12 11:03:46;;;;;;;30.58;20.50;;;5.90;59.30;;;;;;5021439;28;20440;-78
2022/12/12 11:06:51;;;;;;;25.75;17.75;;;5.90;59.20;;;;;;5023367;28;20045;-77
2022/12/12 11:09:43;;;;;;;27.30;19.70;;;6.00;59.20;;;;;;5020925;28;20409;-77
2022/12/12 11:12:33;;;;;;;26.67;18.90;;;6.00;59.10;;;;;;5008800;28;20075;-78
2022/12/12 11:15:17;;;;;;;26.30;17.90;;;6.10;59.20;;;;;;5006974;28;20060;-78
2022/12/12 11:18:03;;;;;;;24.80;17.27;;;6.10;59.00;;;;;;5010276;28;20032;-78
2022/12/12 11:20:51;;;;;;;26.48;18.02;;;6.10;59.00;;;;;;5010893;28;20104;-78
2022/12/12 11:23:40;;;;;;;26.20;19.27;;;6.20;59.10;;;;;;5022930;28;20106;-78
2022/12/12 11:26:27;;;;;;;22.48;16.90;;;6.10;58.80;;;;;;5022278;28;20045;-79
2022/12/12 11:29:39;;;;;;;23.95;16.48;;;6.20;58.90;;;;;;5010372;28;20642;-79
2022/12/12 11:32:37;;;;;;;23.88;16.67;;;6.20;58.80;;;;;;5023733;28;20052;-78
2022/12/12 11:35:36;;;;;;;26.55;16.65;;;6.20;58.80;;;;;;5014878;28;20128;-77
2022/12/12 11:38:26;;;;;;;24.08;16.58;;;6.20;58.70;;;;;;5007768;28;20113;-78
2022/12/12 11:41:11;;;;;;;24.40;16.02;;;6.20;58.60;;;;;;5016439;28;20505;-78
2022/12/12 11:43:59;;;;;;;23.27;16.95;;;6.30;58.70;;;;;;5017777;28;20492;-76
2022/12/12 11:46:43;;;;;;;21.67;15.85;;;6.30;58.60;;;;;;5020064;28;20264;-76
2022/12/12 11:49:30;;;;;;;21.73;15.85;;;6.30;58.60;;;;;;5017217;28;20048;-77
2022/12/12 11:52:23;;;;;;;21.05;16.63;;;6.30;58.50;;;;;;5023082;28;20688;-77
2022/12/12 11:55:14;;;;;;;22.20;15.88;;;6.30;58.40;;;;;;5019140;28;20076;-76
2022/12/12 11:58:10;;;;;;;21.33;14.65;;;6.30;58.50;;;;;;5016210;28;20040;-75
2022/12/12 12:01:30;;;;;;;20.08;15.68;;;6.30;58.50;;;;;;5021317;28;20037;-77
2022/12/12 12:04:20;;;;;;;23.90;16.17;;;6.40;58.60;;;;;;5012725;28;20047;-78
2022/12/12 12:07:23;;;;;;;21.45;15.52;;;6.40;58.60;;;;;;5012584;28;20032;-78
2022/12/12 12:10:21;;;;;;;24.00;16.00;;;6.40;58.40;;;;;;5006612;28;20167;-77
2022/12/12 12:13:08;;;;;;;22.70;16.30;;;6.40;58.40;;;;;;5017489;28;20045;-77
2022/12/12 12:16:15;;;;;;;23.80;16.52;;;6.40;58.40;;;;;;5023013;28;20071;-77
2022/12/12 12:19:21;;;;;;;24.27;15.55;;;6.50;58.50;;;;;;5002700;28;20076;-78
2022/12/12 12:22:37;;;;;;;20.70;14.52;;;6.50;58.30;;;;;;5007304;28;20048;-78
2022/12/12 12:25:31;;;;;;;20.65;14.57;;;6.50;58.20;;;;;;5017635;28;20249;-76
2022/12/12 12:29:00;;;;;;;25.92;16.13;;;6.50;58.10;;;;;;5015157;28;20535;-75
2022/12/12 12:31:57;;;;;;;20.75;15.00;;;6.60;58.10;;;;;;4995701;28;20110;-76
2022/12/12 12:35:03;;;;;;;18.95;14.82;;;6.60;58.10;;;;;;5023263;28;20091;-76
2022/12/12 12:38:12;;;;;;;22.08;15.30;;;6.60;58.00;;;;;;5006766;28;20045;-76
2022/12/12 12:41:20;;;;;;;20.42;14.73;;;6.60;58.00;;;;;;5014482;28;20124;-77
2022/12/12 12:44:26;;;;;;;21.00;15.20;;;6.60;57.90;;;;;;4978588;28;20084;-78
2022/12/12 12:47:31;;;;;;;18.77;13.82;;;6.60;58.00;;;;;;5014202;28;20461;-77
2022/12/12 12:50:28;;;;;;;20.55;14.40;;;6.60;58.00;;;;;;5021665;28;20057;-79
2022/12/12 12:53:15;;;;;;;18.98;14.65;;;6.50;57.80;;;;;;5018192;28;20048;-78
2022/12/12 12:56:24;;;;;;;19.17;14.48;;;6.50;57.90;;;;;;5021563;28;20048;-79
2022/12/12 12:59:17;;;;;;;20.13;14.65;;;6.50;57.90;;;;;;5009984;28;20036;-79
2022/12/12 13:02:33;;;;;;;22.15;15.43;;;6.40;57.70;;;;;;5023220;28;20037;-78
2022/12/12 13:05:38;;;;;;;21.15;14.98;;;6.40;57.70;;;;;;4997267;28;20207;-76
2022/12/12 13:08:41;;;;;;;22.02;15.10;;;6.40;57.70;;;;;;5018696;28;20052;-76
2022/12/12 13:11:37;;;;;;;22.70;16.00;;;6.40;57.70;;;;;;5022021;28;20041;-76
2022/12/12 13:14:43;;;;;;;22.98;15.90;;;6.30;57.50;;;;;;5005380;28;20049;-76
2022/12/12 13:17:46;;;;;;;24.98;16.98;;;6.30;57.50;;;;;;5015515;28;20125;-76
2022/12/12 13:20:36;;;;;;;22.73;15.23;;;6.30;57.50;;;;;;5013698;28;20129;-76
2022/12/12 13:23:24;;;;;;;20.85;14.93;;;6.30;57.50;;;;;;5010270;28;20508;-76
2022/12/12 13:26:15;;;;;;;22.08;15.32;;;6.30;58.10;;;;;;5022471;28;20084;-76
2022/12/12 13:29:17;;;;;;;19.27;14.65;;;6.30;57.50;;;;;;5011561;28;20551;-74
2022/12/12 13:32:14;;;;;;;21.98;15.52;;;6.30;57.50;;;;;;5019390;28;20056;-73
2022/12/12 13:35:24;;;;;;;20.92;14.93;;;6.30;57.50;;;;;;5033767;28;20075;-78
2022/12/12 13:38:28;;;;;;;19.95;14.73;;;6.30;57.40;;;;;;5030214;28;20064;-74
2022/12/12 13:41:14;;;;;;;20.52;14.52;;;6.30;57.40;;;;;;5034995;28;20049;-74
2022/12/12 13:43:59;;;;;;;18.73;13.45;;;6.30;57.40;;;;;;5034366;28;20107;-74
2022/12/12 13:46:43;;;;;;;19.98;14.35;;;6.30;57.40;;;;;;5014538;28;20122;-74
2022/12/12 13:49:45;;;;;;;20.45;14.88;;;6.30;57.40;;;;;;5026023;28;20036;-74
2022/12/12 13:52:30;;;;;;;20.00;14.23;;;6.30;57.30;;;;;;5020132;28;20067;-74
2022/12/12 13:55:17;;;;;;;20.60;14.88;;;6.30;57.30;;;;;;5039601;28;20491;-74
2022/12/12 13:58:07;;;;;;;19.77;14.02;;;6.30;57.30;;;;;;5016917;28;20060;-74
2022/12/12 14:01:30;;;;;;;24.40;14.57;;;6.20;57.20;;;;;;5009929;28;20451;-74
2022/12/12 14:04:29;;;;;;;;;;;6.20;57.10;;;;;;5027194;28;20048;-74
2022/12/12 14:07:21;;;;;;;22.45;15.25;;;6.20;57.20;;;;;;5018920;28;19920;-74
2022/12/12 14:10:38;;;;;;;20.25;14.18;;;6.20;57.30;;;;;;5025119;28;20041;-74
2022/12/12 14:13:23;;;;;;;22.02;14.60;;;6.20;57.30;;;;;;5025303;28;20033;-74
2022/12/12 14:16:14;;;;;;;22.08;15.07;;;6.10;57.10;;;;;;5014878;28;20351;-73
2022/12/12 14:19:05;;;;;;;25.48;17.05;;;6.10;57.10;;;;;;5013197;28;20551;-74
2022/12/12 14:21:50;;;;;;;25.63;17.15;;;6.10;57.10;;;;;;5018485;28;20107;-74
2022/12/12 14:24:34;;;;;;;25.52;15.85;;;6.10;57.20;;;;;;5019686;28;20064;-73
2022/12/12 14:27:48;;;;;;;25.38;17.27;;;6.10;57.10;;;;;;5024895;28;20043;-75
2022/12/12 14:30:59;;;;;;;22.75;15.43;;;6.10;57.10;;;;;;5012757;28;20088;-75
2022/12/12 14:34:16;;;;;;;22.98;15.55;;;6.10;57.10;;;;;;4987088;28;20531;-75
2022/12/12 14:37:13;;;;;;;25.08;15.68;;;6.00;56.90;;;;;;5015372;28;20045;-76
2022/12/12 14:40:12;;;;;;;25.80;16.08;;;6.00;57.00;;;;;;5017062;28;20049;-76
2022/12/12 14:43:11;;;;;;;25.17;16.17;;;6.00;57.00;;;;;;5009589;28;20088;-76
2022/12/12 14:45:57;;;;;;;22.02;15.02;;;6.00;57.00;;;;;;5008019;28;20048;-75
2022/12/12 14:48:42;;;;;;;26.10;16.08;;;6.00;57.10;;;;;;5008449;28;20053;-75
2022/12/12 14:51:29;;;;;;;26.10;16.70;;;5.90;56.90;;;;;;5024768;28;20044;-75
2022/12/12 14:54:18;;;;;;;22.70;15.10;;;5.90;56.90;;;;;;5019183;28;20111;-75
2022/12/12 14:57:06;;;;;;;23.33;15.38;;;5.90;57.00;;;;;;5020423;28;20043;-76